createdAt,value
2018-02-22T00:00:40.808Z,29.73
2018-02-22T00:03:09.101Z,29.77
2018-02-22T00:05:36.702Z,29.07
2018-02-22T00:08:04.213Z,30.97
2018-02-22T00:10:31.718Z,29.13
2018-02-22T00:12:59.950Z,35.93
2018-02-22T00:15:27.430Z,26.73
2018-02-22T00:17:55.028Z,27.67
2018-02-22T00:20:22.506Z,29.40
2018-02-22T00:22:50.128Z,30.10
2018-02-22T00:25:17.599Z,29.60
2018-02-22T00:27:45.277Z,30.53
2018-02-22T00:30:12.766Z,31.70
2018-02-22T00:32:40.279Z,29.87
2018-02-22T00:35:07.751Z,26.27
2018-02-22T00:37:36.025Z,30.50
2018-02-22T00:40:03.530Z,28.93
2018-02-22T00:42:31.021Z,29.20
2018-02-22T00:44:58.514Z,27.03
2018-02-22T00:47:26.761Z,30.03
2018-02-22T00:49:54.238Z,29.83
2018-02-22T00:52:21.733Z,29.03
2018-02-22T00:54:49.236Z,30.20
2018-02-22T00:57:16.727Z,32.40
2018-02-22T00:59:44.233Z,27.53
2018-02-22T01:02:11.742Z,27.33
2018-02-22T01:04:39.349Z,31.63
2018-02-22T01:07:06.881Z,29.67
2018-02-22T01:09:34.346Z,28.47
2018-02-22T01:12:01.897Z,27.17
2018-02-22T01:14:29.400Z,26.57
2018-02-22T01:16:56.891Z,26.13
2018-02-22T01:19:24.413Z,28.00
2018-02-22T01:21:52.672Z,26.27
2018-02-22T01:24:20.147Z,24.77
2018-02-22T01:26:47.643Z,26.40
2018-02-22T01:29:15.231Z,29.57
2018-02-22T01:31:42.700Z,26.53
2018-02-22T01:34:10.181Z,30.20
2018-02-22T01:36:37.717Z,31.83
2018-02-22T01:39:05.191Z,29.63
2018-02-22T01:41:32.684Z,27.80
2018-02-22T01:44:00.151Z,30.63
2018-02-22T01:46:27.677Z,33.17
2018-02-22T01:48:55.978Z,27.30
2018-02-22T01:51:23.672Z,28.77
2018-02-22T01:53:51.909Z,29.07
2018-02-22T01:56:19.466Z,29.00
2018-02-22T01:58:46.955Z,27.13
2018-02-22T02:01:14.515Z,29.93
2018-02-22T02:03:42.059Z,31.20
2018-02-22T02:06:10.449Z,27.93
2018-02-22T02:08:37.930Z,27.13
2018-02-22T02:11:05.418Z,28.67
2018-02-22T02:13:33.679Z,29.17
2018-02-22T02:16:01.178Z,29.67
2018-02-22T02:18:28.661Z,28.83
2018-02-22T02:20:56.233Z,31.57
2018-02-22T02:23:24.504Z,31.23
2018-02-22T02:25:51.985Z,28.90
2018-02-22T02:28:20.233Z,28.57
2018-02-22T02:30:47.762Z,26.07
2018-02-22T02:33:15.311Z,29.83
2018-02-22T02:35:42.896Z,30.40
2018-02-22T02:38:10.374Z,32.43
2018-02-22T02:40:38.626Z,28.77
2018-02-22T02:43:06.115Z,28.33
2018-02-22T02:45:33.690Z,31.57
2018-02-22T02:48:01.963Z,28.00
2018-02-22T02:50:29.494Z,25.17
2018-02-22T02:52:56.987Z,30.33
2018-02-22T02:55:24.466Z,29.13
2018-02-22T02:57:52.747Z,26.60
2018-02-22T03:00:20.369Z,31.17
2018-02-22T03:02:47.933Z,31.63
2018-02-22T03:05:15.409Z,32.33
2018-02-22T03:07:43.666Z,26.87
2018-02-22T03:10:11.226Z,31.53
2018-02-22T03:12:38.699Z,29.67
2018-02-22T03:15:06.171Z,36.57
2018-02-22T03:17:34.475Z,29.97
2018-02-22T03:20:01.967Z,31.87
2018-02-22T03:22:29.485Z,33.67
2018-02-22T03:24:56.949Z,30.83
2018-02-22T03:27:25.187Z,30.00
2018-02-22T03:29:53.472Z,28.63
2018-02-22T03:32:20.946Z,30.50
2018-02-22T03:34:48.456Z,28.87
2018-02-22T03:37:15.991Z,32.40
2018-02-22T03:39:43.493Z,32.40
2018-02-22T03:42:10.982Z,27.33
2018-02-22T03:44:38.530Z,30.17
2018-02-22T03:47:06.039Z,33.50
2018-02-22T03:49:33.605Z,28.47
2018-02-22T03:52:01.864Z,27.87
2018-02-22T03:54:29.358Z,29.53
2018-02-22T03:56:57.647Z,33.90
2018-02-22T03:59:25.119Z,28.40
2018-02-22T04:01:52.610Z,28.37
2018-02-22T04:04:20.200Z,29.93
2018-02-22T04:06:47.781Z,31.30
2018-02-22T04:09:15.302Z,29.63
2018-02-22T04:11:42.789Z,29.10
2018-02-22T04:14:10.370Z,28.43
2018-02-22T04:16:37.852Z,26.63
2018-02-22T04:19:05.350Z,28.83
2018-02-22T04:21:32.830Z,27.87
2018-02-22T04:24:00.304Z,30.17
2018-02-22T04:26:27.794Z,34.03
2018-02-22T04:28:55.271Z,30.07
2018-02-22T04:31:22.786Z,29.07
2018-02-22T04:33:51.110Z,30.40
2018-02-22T04:36:19.366Z,27.97
2018-02-22T04:38:46.852Z,30.57
2018-02-22T04:41:14.342Z,28.67
2018-02-22T04:43:41.828Z,29.07
2018-02-22T04:46:09.330Z,34.00
2018-02-22T04:48:36.894Z,29.10
2018-02-22T04:51:04.395Z,27.77
2018-02-22T04:53:31.879Z,31.10
2018-02-22T04:55:59.344Z,29.90
2018-02-22T04:58:26.853Z,27.93
2018-02-22T05:00:54.355Z,42.13
2018-02-22T05:03:21.931Z,31.93
2018-02-22T05:05:49.438Z,28.17
2018-02-22T05:08:17.003Z,28.77
2018-02-22T05:10:44.483Z,28.07
2018-02-22T05:13:12.713Z,28.97
2018-02-22T05:15:40.223Z,32.07
2018-02-22T05:18:07.808Z,31.67
2018-02-22T05:20:35.390Z,28.53
2018-02-22T05:23:02.852Z,29.70
2018-02-22T05:25:30.353Z,29.07
2018-02-22T05:27:57.983Z,30.27
2018-02-22T05:30:26.234Z,27.90
2018-02-22T05:32:53.730Z,30.47
2018-02-22T05:35:21.250Z,29.97
2018-02-22T05:37:49.507Z,31.50
2018-02-22T05:40:17.019Z,29.07
2018-02-22T05:42:45.439Z,33.43
2018-02-22T05:45:12.980Z,28.83
2018-02-22T05:47:40.466Z,28.23
2018-02-22T05:50:07.974Z,31.13
2018-02-22T05:52:35.567Z,32.53
2018-02-22T05:55:03.854Z,50.40
2018-02-22T05:57:31.365Z,28.37
2018-02-22T05:59:58.872Z,31.40
2018-02-22T06:02:26.391Z,26.47
2018-02-22T06:04:54.334Z,28.43
2018-02-22T06:07:21.842Z,26.00
2018-02-22T06:09:49.392Z,29.13
2018-02-22T06:12:16.907Z,29.90
2018-02-22T06:14:44.482Z,28.23
2018-02-22T06:17:11.939Z,31.03
2018-02-22T06:19:39.431Z,29.37
2018-02-22T06:22:06.955Z,27.03
2018-02-22T06:24:35.937Z,27.97
2018-02-22T06:27:03.442Z,28.10
2018-02-22T06:29:30.924Z,28.97
2018-02-22T06:31:58.445Z,30.23
2018-02-22T06:34:26.015Z,29.60
2018-02-22T06:36:53.688Z,26.17
2018-02-22T06:39:21.174Z,29.77
2018-02-22T06:41:48.658Z,29.73
2018-02-22T06:44:16.169Z,30.63
2018-02-22T06:46:43.704Z,24.70
2018-02-22T06:49:11.263Z,28.83
2018-02-22T06:51:38.898Z,26.80
2018-02-22T06:54:07.136Z,25.17
2018-02-22T06:56:34.610Z,26.00
2018-02-22T06:59:02.082Z,26.73
2018-02-22T07:01:29.574Z,25.07
2018-02-22T07:03:57.180Z,27.27
2018-02-22T07:06:25.414Z,25.07
2018-02-22T07:08:52.914Z,27.63
2018-02-22T07:11:20.446Z,23.77
2018-02-22T07:13:47.917Z,26.23
2018-02-22T07:16:15.412Z,24.20
2018-02-22T07:18:43.684Z,23.70
2018-02-22T07:21:11.162Z,25.83
2018-02-22T07:23:38.691Z,21.40
2018-02-22T07:26:06.320Z,22.20
2018-02-22T07:28:34.580Z,24.37
2018-02-22T07:31:02.056Z,27.73
2018-02-22T07:33:29.601Z,24.20
2018-02-22T07:35:57.109Z,21.20
2018-02-22T07:38:24.602Z,20.43
2018-02-22T07:40:52.134Z,21.10
2018-02-22T07:43:20.394Z,18.40
2018-02-22T07:45:47.892Z,19.43
2018-02-22T07:48:15.385Z,18.77
2018-02-22T07:50:42.858Z,19.90
2018-02-22T07:53:10.400Z,15.33
2018-02-22T07:55:38.633Z,17.80
2018-02-22T07:58:06.137Z,15.90
2018-02-22T08:00:33.670Z,16.10
2018-02-22T08:03:01.902Z,17.60
2018-02-22T08:05:29.372Z,15.37
2018-02-22T08:07:57.894Z,14.83
2018-02-22T08:10:25.381Z,14.30
2018-02-22T08:12:52.850Z,15.80
2018-02-22T08:15:20.456Z,13.83
2018-02-22T08:17:47.897Z,14.20
2018-02-22T08:20:15.407Z,12.90
2018-02-22T08:22:42.895Z,14.40
2018-02-22T08:25:10.646Z,19.00
2018-02-22T08:27:38.952Z,15.10
2018-02-22T08:30:07.204Z,12.57
2018-02-22T08:32:34.778Z,13.57
2018-02-22T08:35:03.036Z,14.00
2018-02-22T08:37:30.500Z,12.50
2018-02-22T08:39:57.973Z,16.07
2018-02-22T08:42:25.444Z,13.87
2018-02-22T08:44:52.923Z,13.37
2018-02-22T08:47:20.546Z,11.90
2018-02-22T08:49:48.030Z,13.53
2018-02-22T08:52:17.003Z,11.87
2018-02-22T08:54:44.478Z,10.80
2018-02-22T08:57:12.948Z,11.33
2018-02-22T08:59:40.427Z,9.17
2018-02-22T09:02:08.743Z,10.77
2018-02-22T09:04:36.270Z,12.63
2018-02-22T09:07:03.770Z,9.30
2018-02-22T09:09:31.284Z,10.03
2018-02-22T09:11:58.786Z,11.60
2018-02-22T09:14:26.296Z,10.43
2018-02-22T09:16:53.768Z,7.53
2018-02-22T09:19:21.244Z,10.33
2018-02-22T09:21:48.740Z,12.23
2018-02-22T09:24:16.230Z,10.23
2018-02-22T09:26:43.687Z,9.23
2018-02-22T09:29:11.977Z,8.20
2018-02-22T09:31:39.431Z,7.70
2018-02-22T09:34:06.953Z,9.47
2018-02-22T09:36:34.491Z,9.10
2018-02-22T09:39:02.878Z,6.77
2018-02-22T09:41:30.424Z,7.67
2018-02-22T09:43:57.972Z,8.73
2018-02-22T09:46:25.840Z,8.40
2018-02-22T09:48:53.316Z,8.63
2018-02-22T09:51:21.562Z,8.53
2018-02-22T09:53:49.055Z,7.53
2018-02-22T09:56:16.566Z,8.80
2018-02-22T09:58:44.069Z,10.53
2018-02-22T10:01:12.429Z,7.70
2018-02-22T10:03:41.438Z,7.87
2018-02-22T10:06:08.907Z,9.60
2018-02-22T10:08:36.440Z,9.17
2018-02-22T10:11:03.982Z,7.03
2018-02-22T10:13:31.469Z,6.70
2018-02-22T10:15:58.991Z,10.33
2018-02-22T10:18:26.474Z,9.93
2018-02-22T10:20:53.943Z,8.13
2018-02-22T10:23:21.513Z,6.47
2018-02-22T10:25:48.973Z,8.33
2018-02-22T10:28:16.479Z,7.50
2018-02-22T10:30:43.973Z,6.73
2018-02-22T10:33:11.530Z,6.90
2018-02-22T10:35:39.027Z,6.30
2018-02-22T10:38:07.399Z,6.67
2018-02-22T10:40:35.661Z,5.20
2018-02-22T10:43:03.126Z,6.37
2018-02-22T10:45:30.632Z,7.13
2018-02-22T10:47:58.126Z,6.73
2018-02-22T10:50:26.396Z,7.43
2018-02-22T10:52:53.858Z,6.83
2018-02-22T10:55:21.341Z,6.90
2018-02-22T10:57:48.870Z,6.37
2018-02-22T11:00:16.356Z,6.03
2018-02-22T11:02:45.415Z,6.47
2018-02-22T11:05:13.710Z,6.93
2018-02-22T11:07:41.293Z,5.30
2018-02-22T11:10:09.521Z,8.03
2018-02-22T11:12:37.766Z,6.87
2018-02-22T11:15:05.252Z,8.40
2018-02-22T11:17:32.723Z,6.27
2018-02-22T11:20:00.257Z,7.33
2018-02-22T11:22:27.749Z,7.37
2018-02-22T11:24:55.306Z,8.87
2018-02-22T11:27:22.831Z,7.43
2018-02-22T11:29:51.128Z,9.60
2018-02-22T11:32:18.659Z,9.33
2018-02-22T11:34:46.239Z,11.73
2018-02-22T11:37:13.729Z,11.13
2018-02-22T11:39:41.291Z,9.17
2018-02-22T11:42:08.775Z,9.57
2018-02-22T11:44:36.244Z,8.50
2018-02-22T11:47:03.693Z,8.57
2018-02-22T11:49:31.210Z,7.43
2018-02-22T11:51:59.463Z,8.30
2018-02-22T11:54:27.756Z,10.30
2018-02-22T11:56:55.673Z,10.63
2018-02-22T11:59:24.093Z,10.53
2018-02-22T12:01:51.644Z,8.87
2018-02-22T12:04:19.151Z,9.77
2018-02-22T12:06:47.406Z,12.13
2018-02-22T12:09:15.071Z,10.20
2018-02-22T12:11:42.541Z,10.17
2018-02-22T12:14:10.800Z,9.33
2018-02-22T12:16:38.288Z,10.43
2018-02-22T12:19:05.808Z,9.90
2018-02-22T12:21:34.048Z,9.77
2018-02-22T12:24:01.533Z,12.37
2018-02-22T12:26:29.154Z,10.27
2018-02-22T12:28:57.602Z,10.17
2018-02-22T12:31:25.882Z,10.13
2018-02-22T12:33:53.334Z,11.53
2018-02-22T12:36:20.815Z,10.10
2018-02-22T12:38:48.271Z,10.23
2018-02-22T12:41:15.726Z,9.73
2018-02-22T12:43:43.193Z,11.10
2018-02-22T12:46:10.717Z,9.50
2018-02-22T12:48:38.970Z,12.17
2018-02-22T12:51:06.470Z,12.03
2018-02-22T12:53:33.975Z,11.43
2018-02-22T12:56:01.553Z,10.07
2018-02-22T12:58:29.061Z,12.17
2018-02-22T13:00:56.512Z,11.13
2018-02-22T13:03:23.988Z,13.83
2018-02-22T13:05:51.450Z,10.40
2018-02-22T13:08:18.916Z,11.47
2018-02-22T13:10:46.494Z,11.40
2018-02-22T13:13:13.982Z,10.27
2018-02-22T13:15:41.549Z,11.70
2018-02-22T13:18:09.059Z,10.60
2018-02-22T13:20:36.524Z,10.70
2018-02-22T13:23:03.986Z,12.23
2018-02-22T13:25:31.501Z,9.80
2018-02-22T13:27:58.976Z,12.33
2018-02-22T13:30:26.482Z,12.10
2018-02-22T13:33:05.907Z,12.37
2018-02-22T13:35:33.427Z,11.10
2018-02-22T13:38:15.722Z,10.07
2018-02-22T13:40:43.964Z,10.60
2018-02-22T13:43:11.514Z,17.13
2018-02-22T13:45:39.788Z,11.27
2018-02-22T13:48:07.251Z,11.93
2018-02-22T13:50:46.761Z,12.00
2018-02-22T13:53:15.089Z,11.47
2018-02-22T13:55:43.322Z,13.27
2018-02-22T13:58:10.840Z,12.50
2018-02-22T14:00:50.097Z,12.33
2018-02-22T14:03:18.022Z,10.50
2018-02-22T14:05:45.518Z,9.03
2018-02-22T14:08:24.912Z,12.03
2018-02-22T14:10:52.407Z,11.50
2018-02-22T14:13:19.967Z,11.10
2018-02-22T14:15:48.208Z,9.80
2018-02-22T14:18:15.770Z,10.70
2018-02-22T14:20:43.274Z,12.53
2018-02-22T14:23:10.805Z,13.30
2018-02-22T14:25:38.274Z,13.40
2018-02-22T14:28:05.796Z,12.10
2018-02-22T14:30:33.278Z,13.47
2018-02-22T14:33:00.818Z,11.57
2018-02-22T14:35:29.109Z,12.73
2018-02-22T14:37:56.706Z,14.07
2018-02-22T14:40:24.967Z,11.40
2018-02-22T14:42:52.521Z,12.47
2018-02-22T14:45:20.769Z,11.07
2018-02-22T14:47:48.300Z,14.17
2018-02-22T14:50:16.616Z,13.43
2018-02-22T14:52:44.168Z,11.83
2018-02-22T14:55:11.738Z,12.50
2018-02-22T14:57:39.213Z,12.47
2018-02-22T15:00:06.722Z,15.30
2018-02-22T15:02:34.286Z,12.63
2018-02-22T15:05:01.813Z,15.60
2018-02-22T15:07:30.070Z,14.73
2018-02-22T15:09:57.560Z,11.00
2018-02-22T15:12:25.043Z,14.50
2018-02-22T15:14:52.534Z,13.00
2018-02-22T15:17:20.019Z,15.33
2018-02-22T15:19:47.515Z,13.67
2018-02-22T15:22:15.020Z,11.87
2018-02-22T15:24:42.544Z,12.63
2018-02-22T15:27:10.010Z,12.20
2018-02-22T15:29:37.532Z,13.20
2018-02-22T15:32:05.056Z,12.10
2018-02-22T15:34:32.563Z,12.60
2018-02-22T15:37:00.080Z,12.93
2018-02-22T15:39:27.662Z,10.13
2018-02-22T15:41:55.976Z,12.30
2018-02-22T15:44:23.603Z,15.57
2018-02-22T15:46:51.094Z,13.53
2018-02-22T15:49:18.614Z,13.93
2018-02-22T15:51:46.242Z,12.47
2018-02-22T15:54:13.812Z,10.77
2018-02-22T15:56:41.289Z,12.33
2018-02-22T15:59:08.755Z,11.60
2018-02-22T16:01:36.267Z,14.37
2018-02-22T16:04:03.740Z,15.03
2018-02-22T16:06:31.220Z,16.03
2018-02-22T16:08:59.466Z,21.13
2018-02-22T16:11:26.974Z,23.03
2018-02-22T16:13:54.495Z,22.87
2018-02-22T16:16:22.758Z,20.87
2018-02-22T16:18:50.255Z,16.27
2018-02-22T16:21:18.314Z,23.30
2018-02-22T16:23:45.795Z,16.00
2018-02-22T16:26:13.294Z,13.77
2018-02-22T16:28:40.764Z,12.87
2018-02-22T16:31:09.106Z,15.07
2018-02-22T16:33:36.614Z,15.63
2018-02-22T16:36:04.103Z,16.80
2018-02-22T16:38:32.408Z,14.90
2018-02-22T16:40:59.877Z,13.27
2018-02-22T16:43:27.419Z,13.37
2018-02-22T16:45:54.893Z,19.10
2018-02-22T16:48:22.426Z,15.93
2018-02-22T16:50:50.847Z,17.33
2018-02-22T16:53:18.398Z,14.80
2018-02-22T16:55:45.914Z,17.93
2018-02-22T16:58:13.448Z,23.80
2018-02-22T17:00:40.992Z,13.27
2018-02-22T17:03:08.529Z,15.60
2018-02-22T17:05:36.035Z,12.87
2018-02-22T17:08:03.601Z,16.20
2018-02-22T17:10:31.214Z,15.53
2018-02-22T17:12:59.456Z,17.87
2018-02-22T17:15:27.118Z,17.00
2018-02-22T17:17:54.596Z,14.87
2018-02-22T17:20:22.829Z,13.33
2018-02-22T17:22:50.288Z,16.83
2018-02-22T17:25:18.034Z,13.73
2018-02-22T17:27:51.223Z,15.13
2018-02-22T17:30:25.296Z,16.47
2018-02-22T17:32:52.775Z,13.17
2018-02-22T17:35:30.149Z,15.50
2018-02-22T17:38:03.457Z,14.97
2018-02-22T17:43:32.646Z,12.43
2018-02-22T17:46:00.117Z,17.80
2018-02-22T17:48:27.604Z,13.10
2018-02-22T17:50:55.193Z,15.70
2018-02-22T17:53:22.778Z,12.03
2018-02-22T17:55:51.553Z,13.40
2018-02-22T17:58:19.065Z,12.40
2018-02-22T18:00:48.392Z,14.57
2018-02-22T18:03:15.859Z,13.40
2018-02-22T18:05:43.326Z,14.20
2018-02-22T18:08:10.814Z,12.67
2018-02-22T18:10:38.284Z,16.33
2018-02-22T18:16:50.634Z,13.50
2018-02-22T18:19:18.143Z,12.77
2018-02-22T18:21:45.671Z,17.53
2018-02-22T18:24:13.950Z,16.03
2018-02-22T18:26:41.435Z,18.73
2018-02-22T18:29:08.906Z,21.17
2018-02-22T18:31:36.416Z,15.73
2018-02-22T18:34:03.973Z,13.97
2018-02-22T18:36:35.232Z,16.93
2018-02-22T18:39:10.481Z,14.33
2018-02-22T18:41:45.170Z,14.70
2018-02-22T18:44:18.340Z,11.80
2018-02-22T18:46:45.990Z,11.67
2018-02-22T18:49:13.458Z,16.50
2018-02-22T18:51:41.735Z,13.97
2018-02-22T18:54:09.202Z,16.87
2018-02-22T18:56:36.673Z,14.93
2018-02-22T18:59:04.168Z,11.30
2018-02-22T19:01:31.640Z,14.83
2018-02-22T19:03:59.888Z,14.53
2018-02-22T19:06:27.370Z,17.43
2018-02-22T19:08:54.878Z,18.77
2018-02-22T19:11:22.356Z,13.03
2018-02-22T19:13:50.887Z,14.03
2018-02-22T19:16:18.376Z,14.23
2018-02-22T19:18:45.843Z,15.23
2018-02-22T19:21:13.311Z,15.53
2018-02-22T19:23:40.789Z,12.37
2018-02-22T19:26:09.036Z,15.07
2018-02-22T19:28:36.534Z,14.73
2018-02-22T19:31:04.044Z,14.07
2018-02-22T19:33:31.621Z,14.13
2018-02-22T19:35:59.099Z,14.90
2018-02-22T19:38:26.573Z,13.93
2018-02-22T19:40:54.816Z,13.97
2018-02-22T19:43:23.059Z,13.57
2018-02-22T19:45:50.560Z,12.00
2018-02-22T19:48:18.051Z,14.63
2018-02-22T19:50:45.524Z,15.13
2018-02-22T19:53:13.039Z,17.20
2018-02-22T19:55:40.514Z,16.27
2018-02-22T19:58:08.001Z,13.07
2018-02-22T20:00:35.466Z,14.27
2018-02-22T20:03:03.013Z,13.60
2018-02-22T20:05:30.555Z,13.33
2018-02-22T20:07:58.013Z,13.17
2018-02-22T20:10:25.496Z,15.20
2018-02-22T20:12:53.063Z,13.63
2018-02-22T20:15:20.645Z,14.23
2018-02-22T20:17:48.146Z,17.77
2018-02-22T20:20:15.623Z,14.13
2018-02-22T20:22:43.111Z,13.53
2018-02-22T20:25:10.606Z,13.13
2018-02-22T20:27:38.085Z,15.90
2018-02-22T20:30:05.594Z,12.30
2018-02-22T20:32:33.085Z,13.37
2018-02-22T20:35:00.579Z,13.80
2018-02-22T20:37:28.047Z,17.73
2018-02-22T20:39:55.526Z,16.20
2018-02-22T20:42:23.062Z,19.17
2018-02-22T20:44:50.651Z,14.77
2018-02-22T20:47:18.138Z,23.03
2018-02-22T20:49:45.610Z,17.63
2018-02-22T20:52:13.701Z,26.70
2018-02-22T20:54:41.176Z,19.20
2018-02-22T20:57:08.645Z,20.37
2018-02-22T20:59:36.129Z,17.57
2018-02-22T21:02:03.600Z,14.47
2018-02-22T21:04:31.078Z,12.73
2018-02-22T21:06:58.554Z,14.10
2018-02-22T21:09:26.050Z,14.17
2018-02-22T21:11:53.575Z,14.60
2018-02-22T21:14:21.070Z,12.47
2018-02-22T21:16:48.697Z,14.93
2018-02-22T21:19:16.256Z,16.37
2018-02-22T21:21:43.748Z,13.13
2018-02-22T21:24:11.244Z,13.10
2018-02-22T21:26:38.755Z,13.90
2018-02-22T21:29:06.267Z,16.23
2018-02-22T21:31:34.570Z,15.47
2018-02-22T21:34:02.154Z,14.67
2018-02-22T21:36:29.627Z,14.47
2018-02-22T21:38:57.908Z,13.80
2018-02-22T21:41:25.377Z,17.40
2018-02-22T21:43:52.974Z,16.33
2018-02-22T21:46:20.442Z,14.17
2018-02-22T21:48:47.914Z,18.57
2018-02-22T21:51:15.389Z,16.70
2018-02-22T21:53:42.996Z,14.10
2018-02-22T21:56:10.475Z,16.43
2018-02-22T21:58:37.954Z,13.03
2018-02-22T22:01:05.446Z,14.50
2018-02-22T22:03:32.929Z,14.00
2018-02-22T22:06:00.656Z,13.53
2018-02-22T22:08:28.887Z,13.30
2018-02-22T22:10:56.402Z,12.40
2018-02-22T22:13:23.878Z,16.80
2018-02-22T22:15:51.369Z,14.43
2018-02-22T22:18:18.861Z,18.23
2018-02-22T22:20:46.352Z,15.93
2018-02-22T22:23:13.839Z,17.67
2018-02-22T22:25:41.318Z,13.90
2018-02-22T22:28:08.779Z,14.57
2018-02-22T22:30:36.316Z,13.87
2018-02-22T22:33:03.902Z,14.63
2018-02-22T22:35:32.200Z,12.57
2018-02-22T22:38:00.889Z,17.27
2018-02-22T22:40:28.417Z,16.87
2018-02-22T22:42:56.004Z,14.80
2018-02-22T22:45:23.481Z,16.33
2018-02-22T22:47:50.955Z,14.47
2018-02-22T22:50:18.452Z,14.63
2018-02-22T22:52:45.938Z,15.43
2018-02-22T22:55:13.450Z,15.27
2018-02-22T22:57:40.951Z,16.13
2018-02-22T23:00:08.436Z,12.30
2018-02-22T23:02:35.926Z,14.10
2018-02-22T23:05:03.449Z,15.60
2018-02-22T23:07:30.966Z,13.97
2018-02-22T23:09:58.464Z,15.33
2018-02-22T23:12:26.791Z,15.03
2018-02-22T23:14:54.356Z,16.40
2018-02-22T23:17:21.834Z,15.80
2018-02-22T23:19:49.357Z,18.07
2018-02-22T23:22:16.837Z,13.83
2018-02-22T23:24:45.120Z,15.67
2018-02-22T23:27:12.785Z,16.27
2018-02-22T23:29:41.049Z,16.10
2018-02-22T23:32:08.666Z,14.67
2018-02-22T23:34:36.259Z,16.13
2018-02-22T23:37:03.859Z,15.67
2018-02-22T23:39:31.346Z,14.53
2018-02-22T23:42:04.528Z,16.03
2018-02-22T23:44:32.769Z,14.83
2018-02-22T23:47:01.012Z,16.00
2018-02-22T23:49:29.254Z,14.80
2018-02-22T23:51:56.721Z,14.83
2018-02-22T23:54:24.200Z,15.30
2018-02-22T23:56:51.756Z,17.57
2018-02-22T23:59:19.236Z,17.30
